Time;durP1;ratioP1;P1;durP2;ratioP2;P2;SDS_P1;SDS_P2;PMS_P1;PMS_P2;Temp;Humidity;BMP_temperature;BMP_pressure;BME280_temperature;BME280_humidity;BME280_pressure;Samples;Min_cycle;Max_cycle;Signal;HPM_P1;HPM_P2
2022/07/17 00:01:28;;;;;;;4.78;2.35;;;12.40;99.90;;;;;;6239982;22;20020;-72
2022/07/17 00:03:53;;;;;;;4.13;1.40;;;12.40;99.90;;;;;;6268129;22;20474;-72
2022/07/17 00:06:19;;;;;;;6.22;2.05;;;12.40;99.90;;;;;;6239996;22;20008;-72
2022/07/17 00:08:45;;;;;;;7.65;1.60;;;12.40;99.90;;;;;;6267946;22;20031;-72
2022/07/17 00:11:11;;;;;;;8.75;2.42;;;12.40;99.90;;;;;;6215455;22;20133;-72
2022/07/17 00:13:36;;;;;;;6.25;1.70;;;12.30;99.90;;;;;;6267769;22;20019;-72
2022/07/17 00:16:02;;;;;;;9.38;1.67;;;12.30;99.90;;;;;;6241649;22;20015;-72
2022/07/17 00:18:30;;;;;;;3.67;1.38;;;12.30;99.90;;;;;;6266134;22;20067;-71
2022/07/17 00:20:55;;;;;;;3.08;1.05;;;12.20;99.90;;;;;;6267764;22;20369;-72
2022/07/17 00:23:21;;;;;;;6.65;1.60;;;12.20;99.90;;;;;;6265367;22;20027;-72
2022/07/17 00:25:47;;;;;;;4.95;1.45;;;12.20;99.90;;;;;;6241678;22;20020;-72
2022/07/17 00:28:13;;;;;;;8.68;1.50;;;12.20;99.90;;;;;;6240154;22;20392;-72
2022/07/17 00:30:38;;;;;;;7.95;1.25;;;12.10;99.90;;;;;;6267881;22;20091;-71
2022/07/17 00:33:04;;;;;;;11.43;2.67;;;12.10;99.90;;;;;;6266572;22;20020;-72
2022/07/17 00:35:30;;;;;;;4.50;1.48;;;12.00;99.90;;;;;;6266486;22;20030;-72
2022/07/17 00:37:56;;;;;;;2.97;1.27;;;12.00;99.90;;;;;;6267335;22;20023;-72
2022/07/17 00:40:23;;;;;;;4.85;1.30;;;12.00;99.90;;;;;;6265729;22;20022;-72
2022/07/17 00:42:50;;;;;;;6.00;1.90;;;12.00;99.90;;;;;;6268061;22;20030;-72
2022/07/17 00:45:16;;;;;;;7.38;1.85;;;11.90;99.90;;;;;;6265116;22;20446;-72
2022/07/17 00:47:51;;;;;;;3.17;1.80;;;11.90;99.90;;;;;;6267488;22;20094;-72
2022/07/17 00:50:17;;;;;;;4.55;1.80;;;11.90;99.90;;;;;;6266370;22;20031;-72
2022/07/17 00:52:43;;;;;;;4.78;1.75;;;11.80;99.90;;;;;;6241291;22;20054;-72
2022/07/17 00:55:10;;;;;;;3.78;1.85;;;11.70;99.90;;;;;;6267284;22;20386;-72
2022/07/17 00:57:38;;;;;;;3.83;1.90;;;11.70;99.90;;;;;;6265677;22;20019;-72
2022/07/17 01:00:09;;;;;;;6.40;2.13;;;11.70;99.90;;;;;;6267517;22;20023;-73
2022/07/17 01:02:35;;;;;;;10.40;2.00;;;11.60;99.90;;;;;;6240359;22;20031;-72
2022/07/17 01:05:00;;;;;;;10.88;2.40;;;11.60;99.90;;;;;;6242211;22;20023;-72
2022/07/17 01:07:26;;;;;;;8.65;2.05;;;11.70;99.90;;;;;;6240427;22;20073;-72
2022/07/17 01:09:52;;;;;;;6.95;2.20;;;11.70;99.90;;;;;;6266898;22;20069;-71
2022/07/17 01:12:18;;;;;;;4.43;2.05;;;11.70;99.90;;;;;;6267017;22;20474;-72
2022/07/17 01:14:44;;;;;;;4.57;1.58;;;11.70;99.90;;;;;;6240577;22;20012;-72
2022/07/17 01:17:11;;;;;;;8.68;2.13;;;11.70;99.90;;;;;;6267104;22;20130;-72
2022/07/17 01:19:36;;;;;;;7.78;1.58;;;11.70;99.90;;;;;;6265726;22;20454;-72
2022/07/17 01:22:02;;;;;;;3.22;1.50;;;11.70;99.90;;;;;;6267622;22;20016;-72
2022/07/17 01:24:28;;;;;;;10.07;1.75;;;11.70;99.90;;;;;;6239909;22;20033;-72
2022/07/17 01:26:54;;;;;;;5.28;1.70;;;11.70;99.90;;;;;;6242177;22;20058;-72
2022/07/17 01:29:19;;;;;;;4.57;1.35;;;11.70;99.90;;;;;;6266642;22;20112;-73
2022/07/17 01:31:45;;;;;;;4.82;1.60;;;11.70;99.90;;;;;;6240932;22;20098;-72
2022/07/17 01:34:14;;;;;;;8.77;1.52;;;11.60;99.90;;;;;;6241916;22;20023;-73
2022/07/17 01:36:41;;;;;;;5.30;1.92;;;11.50;99.90;;;;;;6265417;22;20024;-72
2022/07/17 01:39:07;;;;;;;5.25;1.48;;;11.50;99.90;;;;;;6267029;22;20402;-72
2022/07/17 01:41:33;;;;;;;6.80;1.30;;;11.40;99.90;;;;;;6265795;22;20358;-73
2022/07/17 01:43:59;;;;;;;6.18;1.40;;;11.30;99.90;;;;;;6267729;22;20058;-72
2022/07/17 01:46:25;;;;;;;5.80;1.67;;;11.30;99.90;;;;;;6265897;22;20139;-72
2022/07/17 01:48:51;;;;;;;4.63;1.40;;;11.30;99.90;;;;;;6266847;22;20023;-72
2022/07/17 01:51:17;;;;;;;6.40;1.50;;;11.20;99.90;;;;;;6268258;22;20016;-72
2022/07/17 01:53:42;;;;;;;4.10;1.73;;;11.20;99.90;;;;;;6268518;22;20016;-72
2022/07/17 01:56:08;;;;;;;2.40;1.65;;;11.20;99.90;;;;;;6242687;22;20562;-72
2022/07/17 01:58:34;;;;;;;1.90;1.20;;;11.20;99.90;;;;;;6266520;22;20050;-72
2022/07/17 02:01:00;;;;;;;3.25;1.60;;;11.20;99.90;;;;;;6268514;22;20019;-72
2022/07/17 02:03:25;;;;;;;10.02;1.73;;;11.20;99.90;;;;;;6240707;22;20023;-72
2022/07/17 02:05:51;;;;;;;5.82;1.45;;;11.20;99.90;;;;;;6268555;22;20374;-72
2022/07/17 02:08:17;;;;;;;4.03;1.50;;;11.10;99.90;;;;;;6267305;22;20098;-72
2022/07/17 02:10:43;;;;;;;4.60;1.48;;;11.00;99.90;;;;;;6267007;22;20100;-72
2022/07/17 02:13:08;;;;;;;5.13;2.10;;;10.90;99.90;;;;;;6267964;22;20439;-72
2022/07/17 02:15:34;;;;;;;4.38;1.55;;;10.90;99.90;;;;;;6241205;22;20020;-72
2022/07/17 02:18:00;;;;;;;3.72;1.75;;;10.90;99.90;;;;;;6268384;22;20398;-73
2022/07/17 02:20:26;;;;;;;5.25;1.40;;;10.90;99.90;;;;;;6240669;22;20047;-73
2022/07/17 02:22:51;;;;;;;4.82;1.42;;;10.90;99.90;;;;;;6268355;22;20016;-73
2022/07/17 02:25:17;;;;;;;3.67;1.70;;;10.90;99.90;;;;;;6241172;22;20016;-72
2022/07/17 02:27:43;;;;;;;13.07;1.65;;;10.80;99.90;;;;;;6242175;22;20032;-71
2022/07/17 02:30:16;;;;;;;6.35;1.50;;;10.80;99.90;;;;;;6268598;22;20552;-72
2022/07/17 02:32:44;;;;;;;5.90;2.05;;;10.90;99.90;;;;;;6265962;22;20035;-72
2022/07/17 02:35:11;;;;;;;4.45;1.50;;;10.90;99.90;;;;;;6268027;22;20461;-72
2022/07/17 02:37:38;;;;;;;3.40;1.60;;;10.90;99.90;;;;;;6266247;22;20077;-72
2022/07/17 02:40:04;;;;;;;5.13;1.48;;;10.90;99.90;;;;;;6242700;22;20329;-73
2022/07/17 02:42:30;;;;;;;4.50;1.48;;;10.90;99.90;;;;;;6266075;22;20070;-73
2022/07/17 02:44:58;;;;;;;3.78;1.27;;;10.80;99.90;;;;;;6267868;22;20374;-73
2022/07/17 02:47:34;;;;;;;4.30;1.08;;;10.80;99.90;;;;;;6267583;22;20023;-73
2022/07/17 02:50:03;;;;;;;2.78;1.60;;;10.70;99.90;;;;;;6266175;22;20027;-72
2022/07/17 02:52:29;;;;;;;4.45;1.35;;;10.60;99.90;;;;;;6242687;22;20050;-73
2022/07/17 02:54:54;;;;;;;3.17;1.23;;;10.60;99.90;;;;;;6266244;22;20019;-72
2022/07/17 02:57:20;;;;;;;4.38;1.38;;;10.50;99.90;;;;;;6267289;22;20030;-73
2022/07/17 02:59:46;;;;;;;7.40;1.83;;;10.50;99.90;;;;;;6266967;22;20015;-72
2022/07/17 03:02:14;;;;;;;6.40;1.90;;;10.60;99.90;;;;;;6267337;22;20024;-72
2022/07/17 03:04:39;;;;;;;7.55;1.42;;;10.60;99.90;;;;;;6267220;22;20085;-72
2022/07/17 03:07:05;;;;;;;5.90;1.35;;;10.60;99.90;;;;;;6266077;22;20019;-73
2022/07/17 03:09:31;;;;;;;10.75;1.80;;;10.60;99.90;;;;;;6241965;22;20058;-72
2022/07/17 03:11:57;;;;;;;4.93;1.50;;;10.70;99.90;;;;;;6266019;22;20023;-73
2022/07/17 03:14:23;;;;;;;4.65;1.55;;;10.60;99.90;;;;;;6266603;22;20020;-73
2022/07/17 03:16:48;;;;;;;4.65;1.30;;;10.60;99.90;;;;;;6265773;22;20020;-72
2022/07/17 03:19:14;;;;;;;2.35;1.20;;;10.70;99.90;;;;;;6242155;22;20050;-72
2022/07/17 03:21:40;;;;;;;3.15;1.20;;;10.70;99.90;;;;;;6241200;22;20020;-72
2022/07/17 03:24:05;;;;;;;7.20;1.92;;;10.70;99.90;;;;;;6241464;22;20434;-73
2022/07/17 03:26:31;;;;;;;9.07;1.85;;;10.70;99.90;;;;;;6241672;22;20081;-72
2022/07/17 03:28:57;;;;;;;3.50;1.40;;;10.70;99.90;;;;;;6265915;22;20393;-72
2022/07/17 03:31:22;;;;;;;5.72;1.63;;;10.70;99.90;;;;;;6267145;22;20015;-72
2022/07/17 03:33:48;;;;;;;2.38;1.40;;;10.70;99.90;;;;;;6240131;22;20024;-72
2022/07/17 03:36:14;;;;;;;5.20;1.90;;;10.70;99.90;;;;;;6267484;22;20533;-73
2022/07/17 03:38:40;;;;;;;3.13;1.55;;;10.70;99.90;;;;;;6265531;22;20335;-72
2022/07/17 03:41:05;;;;;;;11.98;1.70;;;10.70;99.90;;;;;;6241794;22;20019;-74
2022/07/17 03:43:31;;;;;;;4.60;1.73;;;10.70;99.90;;;;;;6240904;22;20024;-72
2022/07/17 03:45:57;;;;;;;2.75;1.42;;;10.70;99.90;;;;;;6266075;22;20095;-72
2022/07/17 03:48:23;;;;;;;8.43;1.70;;;10.80;99.90;;;;;;6267411;22;20114;-72
2022/07/17 03:50:48;;;;;;;5.85;1.60;;;10.80;99.90;;;;;;6240082;22;20533;-73
2022/07/17 03:53:14;;;;;;;6.80;1.95;;;10.80;99.90;;;;;;6242092;22;20011;-72
2022/07/17 03:55:40;;;;;;;7.47;2.10;;;10.90;99.90;;;;;;6265153;22;20059;-72
2022/07/17 03:58:05;;;;;;;7.80;2.08;;;10.90;99.90;;;;;;6267219;22;20022;-72
2022/07/17 04:00:31;;;;;;;7.25;2.30;;;10.90;99.90;;;;;;6240158;22;20019;-72
2022/07/17 04:02:57;;;;;;;5.82;2.05;;;11.00;99.90;;;;;;6241065;22;20024;-72
2022/07/17 04:05:22;;;;;;;7.78;2.65;;;11.00;99.90;;;;;;6216324;22;20019;-72
2022/07/17 04:07:48;;;;;;;4.57;2.28;;;11.00;99.90;;;;;;6265444;22;20024;-72
2022/07/17 04:10:15;;;;;;;8.80;2.22;;;11.00;99.90;;;;;;6241731;22;20015;-72
2022/07/17 04:12:41;;;;;;;10.05;2.20;;;11.10;99.90;;;;;;6264364;22;20030;-72
2022/07/17 04:15:08;;;;;;;3.55;2.05;;;11.10;99.90;;;;;;6269032;22;20402;-72
2022/07/17 04:17:34;;;;;;;5.13;1.63;;;11.10;99.90;;;;;;6264853;22;20316;-72
2022/07/17 04:20:00;;;;;;;11.23;2.38;;;11.20;99.90;;;;;;6266848;22;20047;-72
2022/07/17 04:22:26;;;;;;;6.18;2.00;;;11.20;99.90;;;;;;6266396;22;20465;-73
2022/07/17 04:24:52;;;;;;;5.45;1.83;;;11.30;99.90;;;;;;6240241;22;20008;-72
2022/07/17 04:27:17;;;;;;;6.82;2.70;;;11.30;99.90;;;;;;6267140;22;20026;-72
2022/07/17 04:29:43;;;;;;;11.77;1.80;;;11.40;99.90;;;;;;6214258;22;20015;-72
2022/07/17 04:32:09;;;;;;;4.80;1.85;;;11.50;99.90;;;;;;6241457;22;20043;-72
2022/07/17 04:34:35;;;;;;;6.85;2.05;;;11.50;99.90;;;;;;6264431;22;20019;-73
2022/07/17 04:37:02;;;;;;;6.03;1.85;;;11.60;99.90;;;;;;6267259;22;20085;-72
2022/07/17 04:39:28;;;;;;;9.00;1.63;;;11.60;99.90;;;;;;6267618;22;20026;-72
2022/07/17 04:41:54;;;;;;;8.30;1.60;;;11.70;99.90;;;;;;6266803;22;20407;-72
2022/07/17 04:44:20;;;;;;;4.78;1.63;;;11.70;99.90;;;;;;6267948;22;20015;-73
2022/07/17 04:46:46;;;;;;;3.67;1.83;;;11.70;99.90;;;;;;6240224;22;20025;-72
2022/07/17 04:49:12;;;;;;;5.47;1.70;;;11.80;99.90;;;;;;6241962;22;20027;-72
2022/07/17 04:51:37;;;;;;;8.68;2.10;;;11.80;99.90;;;;;;6239852;22;20020;-72
2022/07/17 04:54:03;;;;;;;5.38;2.00;;;11.90;99.90;;;;;;6267656;22;20023;-71
2022/07/17 04:56:30;;;;;;;5.53;1.90;;;11.90;99.90;;;;;;6239841;22;20402;-72
2022/07/17 04:58:55;;;;;;;14.50;2.45;;;12.00;99.90;;;;;;6242059;22;20011;-72
2022/07/17 05:01:21;;;;;;;6.07;1.90;;;12.00;99.90;;;;;;6267186;22;20030;-73
2022/07/17 05:03:47;;;;;;;3.78;2.10;;;12.00;99.90;;;;;;6265364;22;20015;-72
2022/07/17 05:06:12;;;;;;;6.35;2.15;;;12.10;99.90;;;;;;6267616;22;20515;-73
2022/07/17 05:08:38;;;;;;;7.43;1.95;;;12.10;99.90;;;;;;6265928;22;20023;-72
2022/07/17 05:11:04;;;;;;;12.23;2.90;;;12.20;99.90;;;;;;6267821;22;20026;-72
2022/07/17 05:13:30;;;;;;;8.20;2.60;;;12.20;99.90;;;;;;6265493;22;20025;-72
2022/07/17 05:15:55;;;;;;;13.20;2.20;;;12.30;99.90;;;;;;6216924;22;20015;-72
2022/07/17 05:18:21;;;;;;;7.65;2.22;;;12.30;99.90;;;;;;6266435;22;20435;-73
2022/07/17 05:20:47;;;;;;;5.28;2.20;;;12.40;99.90;;;;;;6266394;22;20070;-72
2022/07/17 05:23:12;;;;;;;5.75;2.25;;;12.40;99.90;;;;;;6267525;22;20032;-72
2022/07/17 05:25:38;;;;;;;6.70;2.13;;;12.50;99.90;;;;;;6266302;22;20049;-72
2022/07/17 05:28:04;;;;;;;9.90;2.42;;;12.50;99.90;;;;;;6269916;22;20330;-72
2022/07/17 05:30:30;;;;;;;7.18;2.03;;;12.60;99.90;;;;;;6267499;22;20087;-72
2022/07/17 05:32:56;;;;;;;4.97;1.77;;;12.60;99.90;;;;;;6243881;22;20466;-72
2022/07/17 05:35:22;;;;;;;6.63;2.45;;;12.70;99.90;;;;;;6267959;22;20020;-72
2022/07/17 05:37:48;;;;;;;5.75;1.90;;;12.70;99.90;;;;;;6268817;22;20470;-72
2022/07/17 05:40:14;;;;;;;7.20;1.92;;;12.80;99.90;;;;;;6243161;22;20019;-72
2022/07/17 05:42:40;;;;;;;7.22;1.75;;;12.90;99.90;;;;;;6216953;22;20066;-72
2022/07/17 05:45:06;;;;;;;6.30;2.00;;;13.00;99.90;;;;;;6269408;22;20426;-73
2022/07/17 05:47:32;;;;;;;5.07;1.80;;;13.10;99.90;;;;;;6267058;22;20019;-73
2022/07/17 05:49:58;;;;;;;4.00;1.80;;;13.20;99.90;;;;;;6269670;22;20141;-72
2022/07/17 05:52:24;;;;;;;6.40;2.03;;;13.30;99.90;;;;;;6268200;22;20091;-72
2022/07/17 05:54:50;;;;;;;6.43;1.70;;;13.50;99.90;;;;;;6268841;22;20072;-71
2022/07/17 05:57:15;;;;;;;8.63;2.17;;;13.70;99.90;;;;;;6268691;22;20022;-72
2022/07/17 05:59:41;;;;;;;6.35;1.65;;;13.80;99.90;;;;;;6242648;22;20015;-72
2022/07/17 06:02:07;;;;;;;6.53;1.50;;;14.00;99.90;;;;;;6218886;22;20075;-71
2022/07/17 06:04:32;;;;;;;6.07;1.60;;;14.10;99.90;;;;;;6216403;22;20098;-72
2022/07/17 06:06:58;;;;;;;7.05;2.17;;;14.10;99.90;;;;;;6217966;22;20431;-72
2022/07/17 06:09:24;;;;;;;9.68;1.95;;;14.20;99.90;;;;;;6267710;22;20027;-72
2022/07/17 06:11:50;;;;;;;8.27;2.90;;;14.30;99.90;;;;;;6270671;22;20443;-73
2022/07/17 06:14:16;;;;;;;8.65;2.55;;;14.40;99.90;;;;;;6269335;22;20023;-73
2022/07/17 06:16:42;;;;;;;7.47;1.70;;;14.50;99.90;;;;;;6269900;22;20019;-73
2022/07/17 06:19:07;;;;;;;5.10;1.67;;;14.60;99.90;;;;;;6218078;22;20112;-72
2022/07/17 06:21:33;;;;;;;9.20;2.90;;;14.70;99.90;;;;;;6267613;22;20020;-71
2022/07/17 06:23:59;;;;;;;7.13;1.98;;;14.80;99.90;;;;;;6269363;22;20038;-73
2022/07/17 06:26:25;;;;;;;6.05;1.83;;;15.00;99.90;;;;;;6241394;22;20055;-72
2022/07/17 06:28:51;;;;;;;9.18;1.95;;;15.10;99.90;;;;;;6268429;22;20429;-72
2022/07/17 06:31:17;;;;;;;6.03;1.60;;;15.20;99.90;;;;;;6241841;22;20031;-72
2022/07/17 06:33:43;;;;;;;8.82;1.67;;;15.30;99.90;;;;;;6243062;22;20035;-73
2022/07/17 06:36:09;;;;;;;9.07;1.40;;;15.40;99.90;;;;;;6267303;22;20060;-73
2022/07/17 06:38:35;;;;;;;8.20;1.20;;;15.50;99.90;;;;;;6267887;22;20434;-73
2022/07/17 06:41:01;;;;;;;6.13;1.58;;;15.60;99.90;;;;;;6268796;22;20027;-72
2022/07/17 06:43:27;;;;;;;3.22;1.45;;;15.70;99.90;;;;;;6267166;22;20039;-72
2022/07/17 06:45:54;;;;;;;5.43;1.80;;;15.70;99.90;;;;;;6242657;22;20541;-72
2022/07/17 06:48:23;;;;;;;10.95;1.77;;;15.80;99.90;;;;;;6242161;22;20019;-73
2022/07/17 06:50:49;;;;;;;3.90;1.38;;;15.80;99.90;;;;;;6268364;22;20059;-72
2022/07/17 06:53:15;;;;;;;7.50;1.60;;;15.90;99.90;;;;;;6267014;22;20022;-73
2022/07/17 06:55:40;;;;;;;10.15;1.50;;;15.80;99.90;;;;;;6268195;22;20451;-73
2022/07/17 06:58:06;;;;;;;10.30;1.70;;;15.90;99.90;;;;;;6268334;22;20376;-72
2022/07/17 07:00:32;;;;;;;4.05;1.17;;;15.90;99.90;;;;;;6267186;22;20418;-72
2022/07/17 07:02:58;;;;;;;5.18;1.00;;;16.00;99.90;;;;;;6268326;22;20020;-72
2022/07/17 07:05:24;;;;;;;12.50;1.60;;;16.10;99.90;;;;;;6266636;22;20031;-74
2022/07/17 07:07:49;;;;;;;11.15;1.30;;;16.10;99.90;;;;;;6268214;22;20058;-72
2022/07/17 07:10:16;;;;;;;6.57;1.17;;;16.20;99.90;;;;;;6241197;22;20011;-73
2022/07/17 07:12:42;;;;;;;4.32;1.23;;;16.30;99.90;;;;;;6243065;22;20086;-73
2022/07/17 07:15:09;;;;;;;10.77;1.10;;;16.30;99.90;;;;;;6267909;22;20075;-73
2022/07/17 07:17:35;;;;;;;6.15;1.17;;;16.40;99.90;;;;;;6242223;22;20034;-72
2022/07/17 07:20:03;;;;;;;2.92;0.98;;;16.50;99.90;;;;;;6268094;22;20019;-72
2022/07/17 07:22:30;;;;;;;5.90;1.08;;;16.50;99.90;;;;;;6266198;22;20020;-72
2022/07/17 07:24:55;;;;;;;8.38;1.52;;;16.50;99.90;;;;;;6242571;22;20365;-72
2022/07/17 07:27:21;;;;;;;7.20;1.50;;;16.60;99.90;;;;;;6241103;22;20020;-72
2022/07/17 07:29:47;;;;;;;4.18;1.10;;;16.50;99.90;;;;;;6267543;22;20016;-73
2022/07/17 07:32:12;;;;;;;4.20;2.50;;;16.50;99.90;;;;;;6266990;22;20023;-73
2022/07/17 07:34:38;;;;;;;8.95;1.50;;;16.60;99.90;;;;;;6267305;22;20026;-72
2022/07/17 07:37:04;;;;;;;13.43;1.27;;;16.60;99.90;;;;;;6267885;22;20016;-73
2022/07/17 07:39:29;;;;;;;6.78;1.63;;;16.60;99.90;;;;;;6241125;22;20149;-74
2022/07/17 07:41:55;;;;;;;4.43;1.40;;;16.60;99.90;;;;;;6267404;22;20469;-72
2022/07/17 07:44:21;;;;;;;6.45;1.33;;;16.60;99.90;;;;;;6240992;22;20024;-72
2022/07/17 07:46:47;;;;;;;5.32;1.10;;;16.50;99.90;;;;;;6265034;22;20401;-72
2022/07/17 07:49:12;;;;;;;5.25;1.23;;;16.50;99.90;;;;;;6237764;22;20509;-71
2022/07/17 07:51:38;;;;;;;9.30;1.48;;;16.40;99.90;;;;;;6239877;22;20020;-72
2022/07/17 07:54:04;;;;;;;4.82;1.20;;;16.30;99.90;;;;;;6264360;22;20027;-71
2022/07/17 07:56:29;;;;;;;9.48;1.73;;;16.20;99.90;;;;;;6238673;22;20011;-72
2022/07/17 07:58:55;;;;;;;9.35;1.40;;;16.40;99.90;;;;;;6264173;22;20058;-73
2022/07/17 08:01:21;;;;;;;6.90;1.33;;;16.90;99.90;;;;;;6263947;22;20122;-72
2022/07/17 08:03:46;;;;;;;4.15;1.23;;;17.40;99.90;;;;;;6264786;22;20057;-72
2022/07/17 08:06:14;;;;;;;6.25;1.42;;;17.90;99.20;;;;;;6264356;22;20020;-73
2022/07/17 08:08:40;;;;;;;3.60;1.20;;;18.30;98.60;;;;;;6267468;22;20027;-72
2022/07/17 08:11:06;;;;;;;6.30;1.52;;;18.60;92.00;;;;;;6266772;22;20022;-71
2022/07/17 08:13:32;;;;;;;7.10;1.33;;;18.60;90.00;;;;;;6267583;22;20026;-71
2022/07/17 08:15:58;;;;;;;7.53;1.50;;;18.70;94.90;;;;;;6266881;22;20024;-73
2022/07/17 08:18:25;;;;;;;6.45;1.20;;;18.80;93.20;;;;;;6266582;22;20489;-72
2022/07/17 08:20:52;;;;;;;9.70;1.52;;;19.10;93.00;;;;;;6240614;22;20410;-72
2022/07/17 08:23:18;;;;;;;6.93;1.67;;;19.10;81.00;;;;;;6265590;22;20095;-72
2022/07/17 08:25:43;;;;;;;11.02;1.50;;;19.10;89.70;;;;;;6267307;22;20176;-72
2022/07/17 08:28:09;;;;;;;4.20;1.33;;;19.50;91.50;;;;;;6265792;22;20047;-72
2022/07/17 08:30:36;;;;;;;6.28;1.42;;;19.70;80.10;;;;;;6267735;22;20102;-72
2022/07/17 08:33:07;;;;;;;4.15;1.10;;;20.00;84.10;;;;;;6266094;22;20024;-72
2022/07/17 08:35:33;;;;;;;8.00;1.33;;;20.30;75.50;;;;;;6266579;22;20039;-72
2022/07/17 08:38:02;;;;;;;5.88;1.05;;;20.30;62.60;;;;;;6266500;22;20050;-74
2022/07/17 08:40:31;;;;;;;10.15;1.48;;;20.00;62.60;;;;;;6266041;22;20020;-74
2022/07/17 08:42:59;;;;;;;4.90;1.35;;;19.80;67.10;;;;;;6266822;22;20024;-74
2022/07/17 08:45:27;;;;;;;9.63;1.70;;;19.80;70.10;;;;;;6262831;22;20016;-74
2022/07/17 08:47:54;;;;;;;7.68;2.08;;;19.60;74.40;;;;;;6266478;22;20028;-74
2022/07/17 08:50:35;;;;;;;7.38;1.35;;;19.70;78.70;;;;;;6268830;22;20026;-74
2022/07/17 08:53:02;;;;;;;8.23;2.05;;;20.00;81.10;;;;;;6265405;22;20019;-74
2022/07/17 08:55:28;;;;;;;8.25;1.40;;;20.40;66.30;;;;;;6266762;22;20043;-74
2022/07/17 08:57:55;;;;;;;7.40;1.58;;;20.60;59.60;;;;;;6261452;22;20024;-73
2022/07/17 09:00:23;;;;;;;5.25;1.45;;;20.60;64.80;;;;;;6265937;22;20900;-75
2022/07/17 09:03:07;;;;;;;12.77;1.52;;;20.50;59.00;;;;;;6239363;22;20016;-75
2022/07/17 09:05:38;;;;;;;3.78;1.23;;;20.10;63.40;;;;;;6239423;22;20065;-73
2022/07/17 09:08:06;;;;;;;7.63;1.00;;;19.90;54.00;;;;;;6266834;22;20062;-74
2022/07/17 09:10:36;;;;;;;5.10;1.30;;;20.00;79.90;;;;;;6265933;22;20034;-73
2022/07/17 09:13:15;;;;;;;4.70;1.75;;;20.20;65.30;;;;;;6266570;22;20894;-75
2022/07/17 09:15:41;;;;;;;6.28;1.30;;;20.20;58.50;;;;;;6265981;22;20054;-74
2022/07/17 09:18:07;;;;;;;4.55;1.20;;;20.20;67.80;;;;;;6239329;22;20096;-74
2022/07/17 09:20:33;;;;;;;4.88;1.52;;;20.30;66.90;;;;;;6264855;22;20085;-74
2022/07/17 09:23:02;;;;;;;6.30;1.45;;;20.30;65.00;;;;;;6265531;22;20086;-74
2022/07/17 09:25:36;;;;;;;2.45;1.17;;;20.50;64.30;;;;;;6241283;22;20016;-75
2022/07/17 09:28:04;;;;;;;4.45;1.00;;;20.70;63.20;;;;;;6266385;22;20032;-73
2022/07/17 09:30:31;;;;;;;5.55;1.63;;;20.90;65.80;;;;;;6268137;22;20382;-74
2022/07/17 09:32:58;;;;;;;7.88;1.15;;;20.80;55.30;;;;;;6264674;22;20047;-71
2022/07/17 09:35:24;;;;;;;12.23;1.33;;;20.70;41.30;;;;;;6240367;22;20081;-72
2022/07/17 09:37:54;;;;;;;6.03;1.27;;;20.50;54.90;;;;;;6267410;22;20065;-72
2022/07/17 09:43:07;;;;;;;9.32;1.17;;;20.10;72.40;;;;;;6271166;22;20041;-73
2022/07/17 09:45:33;;;;;;;2.42;1.10;;;20.20;81.20;;;;;;6215176;22;20023;-72
2022/07/17 09:48:01;;;;;;;4.55;1.35;;;20.20;61.40;;;;;;6266059;22;20055;-74
2022/07/17 09:50:28;;;;;;;4.22;1.08;;;20.20;70.50;;;;;;6239829;22;20034;-73
2022/07/17 09:52:57;;;;;;;5.05;1.02;;;20.20;66.20;;;;;;6266353;22;20034;-74
2022/07/17 09:55:28;;;;;;;6.20;1.33;;;20.10;67.90;;;;;;6266558;22;20066;-73
2022/07/17 09:57:55;;;;;;;4.57;1.50;;;20.00;63.70;;;;;;6266247;22;20106;-73
2022/07/17 10:00:22;;;;;;;8.15;1.20;;;19.90;73.60;;;;;;6268963;22;20043;-73
2022/07/17 10:02:48;;;;;;;3.88;1.40;;;20.00;78.60;;;;;;6265550;22;20012;-73
2022/07/17 10:05:15;;;;;;;5.93;1.05;;;20.20;76.40;;;;;;6243290;22;20026;-74
2022/07/17 10:07:45;;;;;;;8.23;1.63;;;20.40;77.70;;;;;;6267640;22;20016;-73
2022/07/17 10:10:13;;;;;;;2.42;0.77;;;20.60;64.00;;;;;;6265824;22;20436;-74
2022/07/17 10:12:46;;;;;;;4.85;1.45;;;20.40;58.90;;;;;;6267272;22;20023;-73
2022/07/17 10:15:13;;;;;;;4.70;1.17;;;20.50;80.60;;;;;;6237485;22;20019;-73
2022/07/17 10:17:39;;;;;;;3.15;0.98;;;20.70;67.70;;;;;;6266093;22;20015;-73
2022/07/17 10:20:05;;;;;;;6.25;1.45;;;20.50;58.40;;;;;;6237608;22;20086;-74
2022/07/17 10:22:45;;;;;;;7.45;1.25;;;20.30;63.90;;;;;;6241014;22;20340;-74
2022/07/17 10:25:16;;;;;;;7.50;1.38;;;20.10;67.00;;;;;;6232667;22;20035;-74
2022/07/17 10:27:52;;;;;;;4.03;1.00;;;20.10;67.00;;;;;;6240063;22;20027;-73
2022/07/17 10:30:26;;;;;;;5.32;1.10;;;20.10;60.20;;;;;;6266703;22;20454;-73
2022/07/17 10:32:59;;;;;;;4.18;1.23;;;19.90;60.80;;;;;;6264005;22;20287;-73
2022/07/17 10:35:26;;;;;;;4.50;1.25;;;19.70;74.90;;;;;;6265483;22;20019;-74
2022/07/17 10:37:53;;;;;;;5.68;1.70;;;19.70;73.80;;;;;;6266304;22;20020;-73
2022/07/17 10:40:23;;;;;;;5.50;1.10;;;19.60;60.60;;;;;;6242631;22;20023;-73
2022/07/17 10:43:00;;;;;;;5.93;1.30;;;19.40;65.40;;;;;;6268062;22;20019;-73
2022/07/17 10:45:28;;;;;;;4.28;1.67;;;19.60;86.10;;;;;;6266475;22;20023;-73
2022/07/17 10:47:59;;;;;;;3.27;0.90;;;19.50;70.60;;;;;;6267934;22;20089;-73
2022/07/17 10:50:35;;;;;;;3.78;1.10;;;19.60;79.10;;;;;;6266008;22;20020;-73
2022/07/17 10:53:17;;;;;;;5.68;1.85;;;19.60;69.00;;;;;;6241991;22;20346;-73
2022/07/17 10:55:45;;;;;;;5.57;1.20;;;19.50;80.70;;;;;;6242508;22;20012;-73
2022/07/17 10:58:37;;;;;;;5.47;1.23;;;19.50;68.70;;;;;;6240884;22;20046;-74
2022/07/17 11:01:14;;;;;;;3.75;0.88;;;19.60;76.00;;;;;;6269752;22;20024;-74
2022/07/17 11:03:49;;;;;;;3.00;1.17;;;19.80;83.70;;;;;;6241123;22;20020;-74
2022/07/17 11:06:21;;;;;;;10.05;1.30;;;19.90;80.00;;;;;;6241324;22;20024;-73
2022/07/17 11:08:49;;;;;;;10.23;1.58;;;19.90;66.50;;;;;;6267716;22;20315;-75
2022/07/17 11:11:16;;;;;;;3.58;1.20;;;20.20;85.00;;;;;;6240476;22;20275;-73
2022/07/17 11:13:42;;;;;;;3.53;1.30;;;20.40;70.70;;;;;;6241920;22;20023;-71
2022/07/17 11:16:09;;;;;;;3.85;1.15;;;20.70;78.80;;;;;;6240223;22;20011;-73
2022/07/17 11:18:36;;;;;;;3.40;1.10;;;20.90;77.80;;;;;;6242648;22;20381;-73
2022/07/17 11:21:04;;;;;;;9.38;1.40;;;21.00;62.00;;;;;;6240669;22;20019;-73
2022/07/17 11:23:33;;;;;;;7.50;1.17;;;21.20;73.40;;;;;;6267825;22;20031;-72
2022/07/17 11:26:04;;;;;;;6.45;1.17;;;21.10;54.00;;;;;;6241722;22;20015;-73
2022/07/17 11:28:53;;;;;;;7.03;1.10;;;21.10;84.60;;;;;;6267171;22;20367;-73
2022/07/17 11:31:20;;;;;;;;;;;21.20;65.60;;;;;;6267371;22;20027;-74
2022/07/17 11:34:05;;;;;;;3.90;0.93;;;21.30;54.50;;;;;;6239419;22;20383;-73
2022/07/17 11:36:32;;;;;;;2.88;1.20;;;21.50;60.80;;;;;;6266183;22;20034;-74
2022/07/17 11:39:10;;;;;;;2.20;0.80;;;21.50;57.80;;;;;;6266346;22;20415;-73
2022/07/17 11:41:41;;;;;;;4.20;1.17;;;21.60;61.40;;;;;;6265440;22;20016;-72
2022/07/17 11:44:15;;;;;;;4.35;1.48;;;21.60;63.50;;;;;;6266777;22;20031;-74
2022/07/17 11:46:45;;;;;;;7.00;1.58;;;21.60;72.10;;;;;;6265464;22;20090;-74
2022/07/17 11:49:22;;;;;;;6.13;1.50;;;21.60;55.90;;;;;;6267369;22;20034;-73
2022/07/17 11:51:48;;;;;;;2.72;1.13;;;21.50;54.50;;;;;;6267153;22;20019;-74
2022/07/17 11:54:16;;;;;;;3.33;0.95;;;21.10;49.40;;;;;;6240595;22;20099;-72
2022/07/17 11:56:50;;;;;;;3.55;1.15;;;20.60;55.80;;;;;;6266955;22;20023;-73
2022/07/17 11:59:28;;;;;;;1.67;0.82;;;20.30;63.90;;;;;;6265859;22;20094;-73
2022/07/17 12:01:54;;;;;;;5.35;1.33;;;20.30;69.60;;;;;;6241321;22;20028;-72
2022/07/17 12:04:20;;;;;;;5.75;1.30;;;20.20;65.20;;;;;;6264392;22;20094;-72
2022/07/17 12:07:02;;;;;;;4.53;1.30;;;20.30;57.60;;;;;;6241037;22;20069;-72
2022/07/17 12:09:29;;;;;;;3.50;1.13;;;20.00;64.70;;;;;;6217103;22;20340;-73
2022/07/17 12:11:55;;;;;;;7.28;1.00;;;20.00;68.50;;;;;;6265196;22;20016;-73
2022/07/17 12:14:21;;;;;;;6.03;1.38;;;20.20;87.60;;;;;;6240929;22;20077;-73
2022/07/17 12:16:47;;;;;;;2.30;0.93;;;20.40;72.90;;;;;;6265248;22;20312;-73
2022/07/17 12:19:18;;;;;;;1.73;1.00;;;20.50;67.40;;;;;;6266924;22;20020;-73
2022/07/17 12:21:56;;;;;;;3.50;1.02;;;20.50;63.00;;;;;;6266223;22;20015;-72
2022/07/17 12:24:30;;;;;;;4.07;1.57;;;20.50;74.70;;;;;;6265599;22;20342;-73
2022/07/17 12:26:57;;;;;;;2.42;1.02;;;20.50;75.30;;;;;;6265230;22;20019;-73
2022/07/17 12:29:23;;;;;;;2.10;0.85;;;20.60;71.80;;;;;;6265047;22;20481;-73
2022/07/17 12:32:00;;;;;;;2.92;0.93;;;20.70;70.80;;;;;;6241264;22;20050;-73
2022/07/17 12:34:26;;;;;;;2.13;0.85;;;20.70;66.80;;;;;;6265298;22;20034;-73
2022/07/17 12:36:52;;;;;;;1.23;0.80;;;20.80;70.90;;;;;;6240423;22;20094;-73
2022/07/17 12:39:17;;;;;;;2.35;1.00;;;20.80;77.80;;;;;;6265912;22;20027;-73
2022/07/17 12:41:43;;;;;;;2.67;0.90;;;20.90;64.00;;;;;;6265904;22;20039;-73
2022/07/17 12:44:09;;;;;;;1.70;0.88;;;21.00;78.40;;;;;;6266411;22;20075;-73
2022/07/17 12:46:34;;;;;;;1.98;0.68;;;21.00;57.60;;;;;;6264693;22;20019;-73
2022/07/17 12:49:00;;;;;;;3.10;0.80;;;21.10;67.30;;;;;;6267313;22;20015;-72